createdAt,value
2022-12-01T00:01:19.194Z,2.05
2022-12-01T00:04:06.743Z,2.14
2022-12-01T00:06:54.189Z,2.06
2022-12-01T00:10:00.507Z,2.03
2022-12-01T00:12:47.972Z,2.02
2022-12-01T00:15:36.935Z,2.05
2022-12-01T00:18:24.352Z,2.00
2022-12-01T00:21:15.569Z,2.03
2022-12-01T00:24:03.155Z,2.00
2022-12-01T00:26:50.694Z,2.00
2022-12-01T00:29:38.184Z,2.03
2022-12-01T00:32:25.751Z,2.00
2022-12-01T00:35:13.877Z,1.95
2022-12-01T00:38:01.391Z,1.94
2022-12-01T00:40:48.924Z,1.98
2022-12-01T00:43:36.491Z,1.94
2022-12-01T00:46:24.310Z,1.96
2022-12-01T00:49:15.860Z,1.94
2022-12-01T00:52:03.461Z,1.81
2022-12-01T00:54:50.977Z,1.82
2022-12-01T00:57:38.576Z,1.83
2022-12-01T01:00:26.616Z,1.79
2022-12-01T01:03:14.207Z,1.80
2022-12-01T01:06:08.881Z,1.83
2022-12-01T01:08:56.373Z,1.81
2022-12-01T01:11:43.875Z,1.82
2022-12-01T01:14:31.388Z,1.86
2022-12-01T01:17:18.919Z,1.78
2022-12-01T01:20:07.118Z,1.79
2022-12-01T01:22:54.656Z,1.79
2022-12-01T01:25:42.213Z,1.78
2022-12-01T01:28:30.670Z,1.75
2022-12-01T01:31:19.719Z,1.76
2022-12-01T01:34:07.304Z,1.73
2022-12-01T01:36:54.807Z,1.71
2022-12-01T01:39:42.211Z,1.77
2022-12-01T01:42:29.702Z,1.77
2022-12-01T01:45:21.525Z,1.72
2022-12-01T01:48:10.196Z,1.64
2022-12-01T01:50:57.819Z,1.63
2022-12-01T01:53:45.927Z,1.59
2022-12-01T01:56:33.787Z,1.51
2022-12-01T01:59:24.979Z,1.49
2022-12-01T02:02:13.268Z,1.51
2022-12-01T02:05:01.966Z,1.51
2022-12-01T02:07:50.646Z,1.47
2022-12-01T02:10:38.177Z,1.36
2022-12-01T02:13:44.772Z,1.50
2022-12-01T02:16:35.353Z,1.51
2022-12-01T02:19:25.681Z,1.47
2022-12-01T02:22:34.256Z,1.49
2022-12-01T02:25:42.079Z,1.53
2022-12-01T02:28:29.952Z,1.55
2022-12-01T02:31:37.607Z,1.49
2022-12-01T02:34:28.254Z,1.45
2022-12-01T02:37:25.043Z,1.54
2022-12-01T02:40:12.571Z,1.50
2022-12-01T02:43:12.307Z,1.56
2022-12-01T02:45:59.905Z,1.49
2022-12-01T02:48:51.608Z,1.53
2022-12-01T02:51:39.583Z,1.56
2022-12-01T02:54:30.212Z,1.46
2022-12-01T02:57:17.735Z,1.49
2022-12-01T03:00:07.004Z,1.50
2022-12-01T03:03:00.361Z,1.48
2022-12-01T03:05:53.217Z,1.42
2022-12-01T03:08:46.275Z,1.46
2022-12-01T03:11:45.223Z,1.45
2022-12-01T03:14:37.965Z,1.41
2022-12-01T03:17:29.095Z,1.35
2022-12-01T03:20:22.842Z,1.32
2022-12-01T03:23:15.958Z,1.31
2022-12-01T03:26:07.203Z,1.29
2022-12-01T03:28:57.492Z,1.25
2022-12-01T03:31:48.337Z,1.21
2022-12-01T03:34:35.796Z,1.24
2022-12-01T03:37:36.362Z,1.22
2022-12-01T03:40:27.436Z,1.28
2022-12-01T03:43:20.552Z,1.25
2022-12-01T03:46:11.341Z,1.17
2022-12-01T03:48:59.326Z,1.15
2022-12-01T03:51:55.811Z,1.09
2022-12-01T03:54:46.939Z,1.06
2022-12-01T03:57:38.776Z,1.07
2022-12-01T04:00:27.154Z,1.07
2022-12-01T04:03:23.336Z,1.01
2022-12-01T04:06:10.933Z,1.00
2022-12-01T04:08:58.410Z,1.05
2022-12-01T04:12:04.154Z,0.99
2022-12-01T04:14:51.775Z,1.11
2022-12-01T04:17:39.743Z,1.00
2022-12-01T04:20:27.403Z,1.08
2022-12-01T04:23:35.084Z,1.11
2022-12-01T04:26:22.556Z,1.08
2022-12-01T04:29:11.343Z,1.02
2022-12-01T04:31:58.762Z,1.04
2022-12-01T04:34:46.242Z,0.92
2022-12-01T04:37:33.956Z,0.99
2022-12-01T04:40:21.956Z,0.91
2022-12-01T04:43:09.525Z,0.98
2022-12-01T04:45:57.094Z,0.97
2022-12-01T04:48:44.645Z,0.90
2022-12-01T04:51:32.286Z,0.90
2022-12-01T04:54:19.908Z,0.95
2022-12-01T04:57:07.465Z,1.00
2022-12-01T04:59:54.970Z,0.95
2022-12-01T05:02:43.810Z,0.91
2022-12-01T05:05:31.386Z,0.94
2022-12-01T05:08:18.933Z,0.91
2022-12-01T05:11:08.206Z,0.94
2022-12-01T05:13:55.663Z,0.88
2022-12-01T05:16:43.299Z,0.87
2022-12-01T05:19:49.719Z,0.80
2022-12-01T05:23:04.307Z,0.79
2022-12-01T05:25:45.066Z,0.73
2022-12-01T05:28:32.994Z,0.73
2022-12-01T05:31:21.478Z,0.76
2022-12-01T05:34:09.147Z,0.81
2022-12-01T05:36:56.612Z,0.76
2022-12-01T05:39:44.054Z,0.75
2022-12-01T05:42:31.619Z,0.75
2022-12-01T05:45:19.191Z,0.69
2022-12-01T05:48:06.661Z,0.60
2022-12-01T05:50:54.157Z,0.61
2022-12-01T05:53:41.880Z,0.58
2022-12-01T05:56:29.327Z,0.53
2022-12-01T05:59:16.856Z,0.63
2022-12-01T06:02:04.346Z,0.69
2022-12-01T06:04:52.083Z,0.74
2022-12-01T06:07:40.768Z,0.75
2022-12-01T06:10:28.408Z,0.73
2022-12-01T06:13:15.806Z,0.77
2022-12-01T06:16:04.621Z,0.81
2022-12-01T06:18:52.105Z,0.87
2022-12-01T06:21:39.597Z,0.84
2022-12-01T06:24:27.157Z,0.89
2022-12-01T06:27:14.763Z,0.89
2022-12-01T06:30:02.423Z,0.90
2022-12-01T06:32:49.984Z,0.92
2022-12-01T06:35:37.836Z,0.90
2022-12-01T06:38:25.438Z,0.97
2022-12-01T06:41:12.966Z,0.95
2022-12-01T06:44:01.368Z,1.05
2022-12-01T06:46:53.103Z,1.02
2022-12-01T06:49:40.537Z,0.96
2022-12-01T06:52:27.890Z,1.01
2022-12-01T06:55:15.580Z,1.10
2022-12-01T06:58:03.333Z,1.08
2022-12-01T07:00:52.334Z,0.98
2022-12-01T07:03:40.200Z,1.06
2022-12-01T07:06:29.526Z,0.99
2022-12-01T07:09:16.989Z,0.94
2022-12-01T07:12:04.524Z,0.96
2022-12-01T07:14:51.998Z,0.97
2022-12-01T07:17:39.579Z,1.12
2022-12-01T07:20:27.222Z,1.06
2022-12-01T07:23:14.824Z,0.96
2022-12-01T07:26:08.231Z,1.02
2022-12-01T07:28:56.766Z,1.05
2022-12-01T07:31:44.398Z,0.99
2022-12-01T07:34:32.028Z,1.02
2022-12-01T07:37:19.473Z,1.10
2022-12-01T07:40:07.737Z,1.07
2022-12-01T07:42:55.168Z,1.16
2022-12-01T07:45:42.753Z,1.18
2022-12-01T07:48:30.510Z,1.12
2022-12-01T07:51:18.220Z,1.03
2022-12-01T07:54:06.754Z,1.07
2022-12-01T07:56:54.765Z,1.09
2022-12-01T07:59:42.222Z,1.01
2022-12-01T08:02:29.803Z,1.09
2022-12-01T08:05:17.398Z,1.10
2022-12-01T08:08:05.078Z,1.10
2022-12-01T08:10:53.167Z,1.07
2022-12-01T08:13:41.294Z,1.14
2022-12-01T08:16:28.799Z,1.12
2022-12-01T08:19:16.403Z,1.04
2022-12-01T08:22:03.886Z,1.00
2022-12-01T08:24:51.411Z,0.99
2022-12-01T08:27:39.028Z,1.07
2022-12-01T08:30:26.988Z,1.09
2022-12-01T08:33:14.482Z,1.06
2022-12-01T08:36:02.715Z,1.12
2022-12-01T08:38:51.940Z,1.19
2022-12-01T08:41:39.390Z,1.14
2022-12-01T08:44:26.982Z,1.14
2022-12-01T08:47:18.595Z,1.22
2022-12-01T08:50:06.790Z,1.26
2022-12-01T08:52:54.383Z,1.22
2022-12-01T08:55:41.762Z,1.30
2022-12-01T08:58:29.306Z,1.26
2022-12-01T09:01:17.619Z,1.29
2022-12-01T09:04:11.207Z,1.33
2022-12-01T09:06:58.743Z,1.35
2022-12-01T09:09:46.466Z,1.31
2022-12-01T09:12:34.077Z,1.40
2022-12-01T09:15:21.552Z,1.27
2022-12-01T09:18:09.008Z,1.27
2022-12-01T09:20:57.074Z,1.31
2022-12-01T09:23:45.049Z,1.34
2022-12-01T09:26:33.166Z,1.33
2022-12-01T09:29:20.633Z,1.36
2022-12-01T09:32:08.165Z,1.33
2022-12-01T09:34:55.623Z,1.39
2022-12-01T09:37:43.126Z,1.37
2022-12-01T09:40:41.007Z,1.37
2022-12-01T09:43:30.629Z,1.35
2022-12-01T09:46:25.605Z,1.32
2022-12-01T09:49:17.623Z,1.29
2022-12-01T09:52:05.181Z,1.39
2022-12-01T09:54:54.762Z,1.44
2022-12-01T09:57:42.848Z,1.41
2022-12-01T10:00:33.061Z,1.37
2022-12-01T10:03:23.347Z,1.41
2022-12-01T10:06:32.301Z,1.45
2022-12-01T10:09:38.672Z,1.52
2022-12-01T10:12:29.763Z,1.46
2022-12-01T10:15:26.516Z,1.51
2022-12-01T10:18:14.258Z,1.48
2022-12-01T10:21:22.055Z,1.55
2022-12-01T10:24:24.822Z,1.63
2022-12-01T10:27:22.180Z,1.50
2022-12-01T10:30:15.695Z,1.66
2022-12-01T10:33:10.497Z,1.67
2022-12-01T10:35:59.194Z,1.67
2022-12-01T10:38:46.709Z,1.74
2022-12-01T10:41:36.442Z,1.73
2022-12-01T10:44:23.975Z,1.81
2022-12-01T10:47:41.570Z,1.76
2022-12-01T10:50:29.169Z,1.65
2022-12-01T10:53:22.798Z,1.52
2022-12-01T10:56:12.190Z,1.68
2022-12-01T10:59:03.142Z,1.68
2022-12-01T11:01:50.822Z,1.68
2022-12-01T11:04:46.536Z,1.65
2022-12-01T11:07:35.468Z,1.64
2022-12-01T11:10:37.033Z,1.71
2022-12-01T11:13:28.812Z,1.70
2022-12-01T11:16:36.725Z,1.57
2022-12-01T11:19:32.881Z,1.49
2022-12-01T11:22:22.539Z,1.51
2022-12-01T11:25:19.061Z,1.42
2022-12-01T11:28:06.581Z,1.48
2022-12-01T11:30:59.335Z,1.49
2022-12-01T11:33:49.692Z,1.47
2022-12-01T11:36:45.082Z,1.49
2022-12-01T11:39:35.090Z,1.45
2022-12-01T11:42:30.817Z,1.41
2022-12-01T11:45:21.422Z,1.35
2022-12-01T11:48:17.895Z,1.41
2022-12-01T11:51:08.208Z,1.29
2022-12-01T11:54:07.084Z,1.24
2022-12-01T11:57:25.269Z,1.23
2022-12-01T12:00:03.137Z,1.29
2022-12-01T12:03:14.673Z,1.24
2022-12-01T12:09:25.010Z,1.21
2022-12-01T12:12:24.280Z,1.13
2022-12-01T12:15:30.016Z,1.07
2022-12-01T12:18:35.090Z,1.10
2022-12-01T12:21:26.141Z,1.00
2022-12-01T12:24:13.729Z,1.05
2022-12-01T12:27:07.005Z,0.99
2022-12-01T12:29:57.607Z,1.03
2022-12-01T12:32:47.811Z,1.07
2022-12-01T12:35:41.157Z,1.07
2022-12-01T12:38:32.106Z,1.15
2022-12-01T12:41:37.980Z,1.04
2022-12-01T12:44:44.009Z,1.11
2022-12-01T12:47:56.468Z,1.11
2022-12-01T12:50:49.406Z,1.09
2022-12-01T12:53:44.834Z,1.13
2022-12-01T12:56:33.943Z,1.13
2022-12-01T12:59:34.808Z,1.08
2022-12-01T13:02:41.013Z,1.00
2022-12-01T13:05:31.556Z,1.03
2022-12-01T13:08:42.319Z,1.01
2022-12-01T13:11:36.339Z,1.05
2022-12-01T13:14:23.840Z,1.12
2022-12-01T13:17:23.555Z,1.00
2022-12-01T13:20:14.576Z,0.93
2022-12-01T13:23:02.930Z,1.04
2022-12-01T13:25:52.280Z,1.07
2022-12-01T13:28:47.017Z,1.12
2022-12-01T13:31:47.504Z,1.21
2022-12-01T13:34:38.665Z,1.16
2022-12-01T13:37:32.182Z,1.19
2022-12-01T13:40:22.527Z,1.16
2022-12-01T13:43:20.499Z,1.01
2022-12-01T13:46:20.853Z,0.96
2022-12-01T13:49:31.890Z,0.88
2022-12-01T13:52:23.768Z,0.89
2022-12-01T13:55:11.523Z,0.96
2022-12-01T13:57:58.907Z,0.96
2022-12-01T14:00:46.542Z,0.99
2022-12-01T14:03:39.092Z,1.00
2022-12-01T14:06:26.554Z,0.98
2022-12-01T14:09:17.967Z,0.93
2022-12-01T14:12:11.702Z,0.94
2022-12-01T14:15:05.726Z,0.87
2022-12-01T14:18:04.618Z,0.97
2022-12-01T14:20:52.299Z,1.00
2022-12-01T14:23:58.628Z,1.00
2022-12-01T14:26:49.409Z,1.04
2022-12-01T14:29:43.230Z,0.98
2022-12-01T14:32:30.726Z,0.99
2022-12-01T14:35:18.349Z,0.89
2022-12-01T14:38:07.378Z,0.92
2022-12-01T14:40:55.256Z,0.96
2022-12-01T14:44:02.175Z,0.95
2022-12-01T14:47:04.955Z,0.85
2022-12-01T14:50:03.178Z,0.94
2022-12-01T14:52:57.661Z,0.90
2022-12-01T14:55:56.953Z,0.90
2022-12-01T14:58:54.919Z,0.96
2022-12-01T15:01:45.423Z,0.76
2022-12-01T15:04:32.889Z,0.91
2022-12-01T15:07:21.747Z,0.93
2022-12-01T15:10:20.573Z,0.96
2022-12-01T15:13:34.414Z,0.95
2022-12-01T15:16:25.924Z,0.87
2022-12-01T15:19:44.265Z,0.85
2022-12-01T15:22:33.979Z,0.82
2022-12-01T15:25:21.646Z,0.83
2022-12-01T15:28:15.155Z,0.79
2022-12-01T15:31:10.687Z,0.85
2022-12-01T15:33:58.391Z,0.80
2022-12-01T15:36:48.484Z,0.84
2022-12-01T15:39:37.565Z,0.78
2022-12-01T15:42:27.366Z,0.89
2022-12-01T15:45:15.819Z,0.84
2022-12-01T15:48:16.899Z,0.80
2022-12-01T15:51:24.732Z,0.71
2022-12-01T15:54:23.215Z,0.77
2022-12-01T15:57:17.172Z,0.83
2022-12-01T16:00:04.976Z,0.77
2022-12-01T16:03:02.102Z,0.75
2022-12-01T16:05:50.012Z,0.75
2022-12-01T16:08:37.679Z,0.74
2022-12-01T16:11:25.380Z,0.76
2022-12-01T16:14:25.939Z,0.80
2022-12-01T16:17:14.365Z,0.74
2022-12-01T16:20:18.104Z,0.78
2022-12-01T16:23:10.278Z,0.81
2022-12-01T16:26:01.893Z,0.76
2022-12-01T16:28:49.994Z,0.72
2022-12-01T16:31:52.629Z,0.72
2022-12-01T16:34:48.702Z,0.70
2022-12-01T16:37:36.284Z,0.69
2022-12-01T16:40:24.482Z,0.78
2022-12-01T16:43:16.449Z,0.82
2022-12-01T16:46:04.617Z,0.82
2022-12-01T16:48:52.039Z,0.79
2022-12-01T16:51:55.291Z,0.83
2022-12-01T16:54:43.920Z,0.85
2022-12-01T16:57:31.459Z,0.85
2022-12-01T17:00:21.176Z,0.78
2022-12-01T17:03:11.465Z,0.85
2022-12-01T17:06:01.829Z,0.80
2022-12-01T17:08:50.309Z,0.84
2022-12-01T17:11:37.865Z,0.82
2022-12-01T17:14:28.041Z,0.84
2022-12-01T17:17:16.720Z,0.82
2022-12-01T17:20:05.325Z,0.66
2022-12-01T17:22:55.839Z,0.71
2022-12-01T17:25:43.511Z,0.63
2022-12-01T17:28:30.966Z,0.61
2022-12-01T17:31:18.781Z,0.60
2022-12-01T17:34:06.459Z,0.65
2022-12-01T17:36:55.233Z,0.60
2022-12-01T17:39:42.775Z,0.53
2022-12-01T17:42:34.234Z,0.56
2022-12-01T17:45:21.750Z,0.47
2022-12-01T17:48:10.143Z,0.37
2022-12-01T17:50:58.907Z,0.39
2022-12-01T17:53:46.497Z,0.48
2022-12-01T17:56:34.952Z,0.49
2022-12-01T17:59:22.450Z,0.47
2022-12-01T18:02:12.584Z,0.47
2022-12-01T18:05:02.982Z,0.45
2022-12-01T18:07:51.205Z,0.41
2022-12-01T18:10:38.800Z,0.42
2022-12-01T18:13:28.584Z,0.34
2022-12-01T18:16:18.106Z,0.42
2022-12-01T18:19:05.924Z,0.28
2022-12-01T18:21:53.369Z,0.30
2022-12-01T18:24:40.942Z,0.32
2022-12-01T18:27:29.270Z,0.37
2022-12-01T18:30:16.854Z,0.31
2022-12-01T18:33:04.463Z,0.36
2022-12-01T18:35:54.576Z,0.42
2022-12-01T18:38:42.117Z,0.40
2022-12-01T18:41:29.932Z,0.36
2022-12-01T18:44:17.518Z,0.41
2022-12-01T18:47:06.598Z,0.41
2022-12-01T18:49:54.244Z,0.38
2022-12-01T18:52:41.926Z,0.44
2022-12-01T18:55:29.388Z,0.41
2022-12-01T18:58:16.924Z,0.25
2022-12-01T19:01:16.394Z,0.34
2022-12-01T19:04:04.760Z,0.34
2022-12-01T19:06:52.264Z,0.35
2022-12-01T19:09:40.872Z,0.24
2022-12-01T19:12:28.364Z,0.15
2022-12-01T19:15:18.605Z,0.18
2022-12-01T19:18:06.201Z,0.20
2022-12-01T19:20:56.150Z,0.17
2022-12-01T19:23:44.673Z,0.20
2022-12-01T19:26:32.261Z,0.24
2022-12-01T19:29:19.979Z,0.17
2022-12-01T19:32:07.589Z,0.17
2022-12-01T19:34:58.161Z,0.18
2022-12-01T19:37:46.352Z,0.16
2022-12-01T19:40:33.811Z,0.16
2022-12-01T19:43:21.963Z,0.19
2022-12-01T19:46:13.693Z,0.19
2022-12-01T19:49:02.068Z,0.20
2022-12-01T19:51:49.671Z,0.24
2022-12-01T19:54:55.694Z,0.22
2022-12-01T19:57:44.597Z,0.23
2022-12-01T20:00:32.449Z,0.23
2022-12-01T20:03:19.979Z,0.21
2022-12-01T20:06:09.291Z,0.15
2022-12-01T20:08:58.450Z,0.10
2022-12-01T20:11:45.790Z,0.09
2022-12-01T20:14:33.339Z,0.13
2022-12-01T20:17:20.773Z,0.23
2022-12-01T20:20:08.763Z,0.10
2022-12-01T20:23:07.144Z,0.12
2022-12-01T20:25:54.620Z,0.10
2022-12-01T20:28:44.469Z,0.12
2022-12-01T20:31:32.837Z,0.10
2022-12-01T20:34:22.008Z,0.13
2022-12-01T20:37:11.138Z,0.19
2022-12-01T20:39:58.605Z,0.14
2022-12-01T20:42:46.066Z,0.14
2022-12-01T20:45:33.685Z,0.14
2022-12-01T20:48:24.218Z,0.10
2022-12-01T20:51:12.338Z,0.10
2022-12-01T20:54:26.671Z,0.10
2022-12-01T20:57:08.093Z,0.13
2022-12-01T20:59:56.885Z,0.15
2022-12-01T21:02:44.913Z,0.16
2022-12-01T21:05:35.967Z,0.16
2022-12-01T21:08:23.515Z,0.11
2022-12-01T21:11:13.772Z,0.15
2022-12-01T21:14:01.338Z,0.18
2022-12-01T21:16:49.522Z,0.12
2022-12-01T21:19:47.545Z,0.19
2022-12-01T21:22:45.299Z,0.07
2022-12-01T21:25:33.697Z,0.13
2022-12-01T21:28:23.997Z,0.13
2022-12-01T21:31:13.130Z,0.18
2022-12-01T21:34:01.760Z,0.08
2022-12-01T21:36:50.138Z,0.13
2022-12-01T21:39:38.748Z,0.18
2022-12-01T21:42:28.250Z,0.22
2022-12-01T21:45:22.561Z,0.24
2022-12-01T21:48:15.475Z,0.20
2022-12-01T21:51:07.336Z,0.21
2022-12-01T21:53:56.347Z,0.22
2022-12-01T21:56:43.910Z,0.21
2022-12-01T21:59:31.511Z,0.18
2022-12-01T22:02:35.531Z,0.11
2022-12-01T22:05:29.068Z,0.09
2022-12-01T22:08:19.412Z,0.12
2022-12-01T22:11:13.049Z,0.16
2022-12-01T22:14:42.425Z,0.22
2022-12-01T22:17:30.112Z,0.17
2022-12-01T22:20:22.608Z,0.17
2022-12-01T22:23:12.572Z,0.14
2022-12-01T22:26:00.300Z,0.19
2022-12-01T22:28:52.520Z,0.22
2022-12-01T22:31:40.106Z,0.16
2022-12-01T22:34:27.697Z,0.15
2022-12-01T22:37:24.647Z,0.14
2022-12-01T22:40:27.325Z,0.30
2022-12-01T22:43:17.807Z,0.20
2022-12-01T22:46:14.496Z,0.16
2022-12-01T22:49:02.234Z,0.13
2022-12-01T22:52:21.914Z,0.18
2022-12-01T22:55:15.370Z,0.22
2022-12-01T22:58:11.353Z,0.30
2022-12-01T23:01:02.688Z,0.36
2022-12-01T23:03:50.560Z,0.24
2022-12-01T23:06:56.594Z,0.23
2022-12-01T23:09:44.709Z,0.23
2022-12-01T23:12:33.636Z,0.26
2022-12-01T23:15:30.617Z,0.16
2022-12-01T23:18:22.309Z,0.29
2022-12-01T23:21:10.220Z,0.22
2022-12-01T23:23:57.697Z,0.23
2022-12-01T23:26:46.456Z,0.15
2022-12-01T23:29:34.557Z,0.16
2022-12-01T23:32:22.082Z,0.27
2022-12-01T23:35:16.921Z,0.27
2022-12-01T23:38:04.567Z,0.19
2022-12-01T23:40:53.094Z,0.18
2022-12-01T23:43:42.019Z,0.19
2022-12-01T23:46:29.873Z,0.19
2022-12-01T23:49:20.526Z,0.13
2022-12-01T23:52:11.380Z,0.14
2022-12-01T23:54:58.894Z,0.16
2022-12-01T23:57:46.518Z,0.14
